Catàleg de serveis del Meteocat
Campanya meteocatpedra

Dades de l'estació automàtica Santuari de Queralt

?
?
Resum diari 23:00 TU
Dades diàries de l'estació meteorològica
Temperatura mitjana 20.2 °C
Temperatura màxima 26.9 °C 14:17 TU
Temperatura mínima 15.4 °C 5:09 TU
Humitat relativa mitjana 52%
Precipitació acumulada 0.0 mm
Ratxa màxima del vent (10 m) 38.9 km/h - 321º 6:49 TU
Irradiació solar global 28.0 MJ/m2

El tram horari està expressat en Temps Universal (TU). Cal sumar una hora en horari d'hivern i dues en horari d'estiu per passar a l'hora oficial.

Santuari de Queralt

Metadades estació meteorol´gica
Municipi Berga
Comarca Berguedà
Altitud 1167 m
Data alta 23.01.2002
Estat actual Operativa
Dades de període
Període
TU
TM
°C
TX
°C
TN
°C
HRM
%
PPT
mm
VVM (10 m)
km/h
DVM (10 m)
graus
VVX (10 m)
km/h
RS
W/m2
00:00 - 00:30 17.6 17.8 17.3 59 0.0 11.2 310 18.7 0
00:30 - 01:00 17.8 17.9 17.5 54 0.0 1.4 273 5.0 0
01:00 - 01:30 17.4 17.7 17.3 52 0.0 9.0 310 15.8 0
01:30 - 02:00 17.4 18.0 17.2 47 0.0 5.0 327 12.2 0
02:00 - 02:30 17.0 17.5 16.7 53 0.0 4.0 189 9.0 0
02:30 - 03:00 17.1 17.4 17.0 46 0.0 4.7 286 10.1 0
03:00 - 03:30 17.2 17.6 16.9 44 0.0 2.5 183 7.9 (s/d)
03:30 - 04:00 16.8 17.0 16.7 44 0.0 2.9 282 6.5 0
04:00 - 04:30 16.3 16.7 15.9 45 0.0 4.3 310 20.9 0
04:30 - 05:00 16.0 16.4 15.5 45 0.0 8.3 331 25.9 6
05:00 - 05:30 15.9 16.5 15.4 44 0.0 16.9 330 36.0 73
05:30 - 06:00 16.3 16.4 16.1 43 0.0 10.1 341 32.8 168
06:00 - 06:30 16.8 17.2 16.5 40 0.0 16.2 335 30.2 266
06:30 - 07:00 17.1 17.4 16.9 39 0.0 18.0 330 38.9 355
07:00 - 07:30 18.2 19.5 17.4 37 0.0 9.7 338 28.4 455
07:30 - 08:00 19.7 20.2 19.3 46 0.0 9.0 137 18.4 548
08:00 - 08:30 20.8 21.6 19.7 44 0.0 9.7 149 16.9 641
08:30 - 09:00 21.6 22.2 21.1 38 0.0 10.4 159 18.7 725
09:00 - 09:30 23.0 23.5 22.4 35 0.0 12.2 156 20.5 798
09:30 - 10:00 23.3 23.9 22.7 35 0.0 13.3 154 21.6 858
10:00 - 10:30 24.3 25.1 23.2 33 0.0 13.0 155 20.9 911
10:30 - 11:00 24.7 25.2 24.4 31 0.0 12.6 159 20.5 949
11:00 - 11:30 25.2 25.8 24.8 32 0.0 10.1 152 18.0 969
11:30 - 12:00 25.4 26.3 24.6 33 0.0 14.8 164 27.0 981
12:00 - 12:30 25.8 26.4 24.5 33 0.0 15.5 169 28.1 977
12:30 - 13:00 25.8 26.7 24.4 32 0.0 16.6 163 31.3 875
13:00 - 13:30 24.8 26.1 23.2 34 0.0 13.7 166 28.4 759
13:30 - 14:00 26.1 26.6 25.8 33 0.0 13.0 164 25.9 898
14:00 - 14:30 26.2 26.9 25.4 33 0.0 9.4 164 27.4 858
14:30 - 15:00 25.9 26.6 25.1 35 0.0 11.9 169 27.7 795
15:00 - 15:30 25.8 26.6 25.1 35 0.0 11.5 168 30.6 713
15:30 - 16:00 25.4 26.6 24.2 36 0.0 7.6 178 16.9 467
16:00 - 16:30 23.7 24.8 22.9 41 0.0 4.0 272 11.5 166
16:30 - 17:00 22.4 22.9 21.4 47 0.0 14.0 170 29.5 64
17:00 - 17:30 20.9 21.4 20.5 62 0.0 14.8 169 25.6 84
17:30 - 18:00 20.1 20.8 19.8 70 0.0 14.4 176 25.2 89
18:00 - 18:30 19.7 20.0 19.4 75 0.0 13.3 174 19.8 77
18:30 - 19:00 19.3 19.6 18.7 78 0.0 12.2 170 18.7 54
19:00 - 19:30 18.3 18.7 17.8 82 0.0 10.1 176 18.7 11
19:30 - 20:00 17.5 17.8 17.1 86 0.0 8.6 189 15.8 0
20:00 - 20:30 17.1 17.3 17.1 88 0.0 8.3 196 13.0 0
20:30 - 21:00 17.0 17.3 16.8 89 0.0 4.3 266 11.2 0
21:00 - 21:30 17.0 17.3 16.8 90 0.0 5.0 188 10.8 0
21:30 - 22:00 16.9 17.4 16.5 91 0.0 4.3 160 9.0 0
22:00 - 22:30 16.8 17.2 16.4 86 0.0 4.3 216 13.3 0
22:30 - 23:00 16.6 16.8 16.4 88 0.0 5.4 200 11.2 0
23:00 - 23:30 16.7 16.9 16.6 80 0.0 6.5 230 15.8 0

Les dades en taronja només han passat un control de qualitat automàtic. Resta pendent la seva validació definitiva.